sensor_id;sensor_type;location;lat;lon;timestamp;P1;durP1;ratioP1;P2;durP2;ratioP2
15327;SDS011;7764;51.430;6.840;2022-09-12T00:01:03;53.90;;;34.07;;
15327;SDS011;7764;51.430;6.840;2022-09-12T00:03:31;54.50;;;33.47;;
15327;SDS011;7764;51.430;6.840;2022-09-12T00:05:58;53.67;;;33.63;;
15327;SDS011;7764;51.430;6.840;2022-09-12T00:08:25;53.53;;;33.23;;
15327;SDS011;7764;51.430;6.840;2022-09-12T00:10:52;51.10;;;34.20;;
15327;SDS011;7764;51.430;6.840;2022-09-12T00:13:20;53.07;;;33.40;;
15327;SDS011;7764;51.430;6.840;2022-09-12T00:15:47;53.70;;;33.87;;
15327;SDS011;7764;51.430;6.840;2022-09-12T00:18:14;50.73;;;33.30;;
15327;SDS011;7764;51.430;6.840;2022-09-12T00:20:42;51.13;;;32.60;;
15327;SDS011;7764;51.430;6.840;2022-09-12T00:23:10;52.13;;;33.03;;
15327;SDS011;7764;51.430;6.840;2022-09-12T00:25:41;54.13;;;33.20;;
15327;SDS011;7764;51.430;6.840;2022-09-12T00:28:09;54.03;;;33.50;;
15327;SDS011;7764;51.430;6.840;2022-09-12T00:30:40;52.93;;;32.90;;
15327;SDS011;7764;51.430;6.840;2022-09-12T00:33:07;51.57;;;32.87;;
15327;SDS011;7764;51.430;6.840;2022-09-12T00:35:39;51.93;;;32.83;;
15327;SDS011;7764;51.430;6.840;2022-09-12T00:38:07;48.90;;;31.80;;
15327;SDS011;7764;51.430;6.840;2022-09-12T00:40:34;54.73;;;33.00;;
15327;SDS011;7764;51.430;6.840;2022-09-12T00:43:01;54.73;;;32.17;;
15327;SDS011;7764;51.430;6.840;2022-09-12T00:45:28;50.53;;;32.53;;
15327;SDS011;7764;51.430;6.840;2022-09-12T00:47:59;48.30;;;30.87;;
15327;SDS011;7764;51.430;6.840;2022-09-12T00:50:28;48.87;;;31.50;;
15327;SDS011;7764;51.430;6.840;2022-09-12T00:52:58;51.97;;;32.27;;
15327;SDS011;7764;51.430;6.840;2022-09-12T00:55:30;48.93;;;31.30;;
15327;SDS011;7764;51.430;6.840;2022-09-12T00:58:02;51.80;;;32.40;;
15327;SDS011;7764;51.430;6.840;2022-09-12T01:00:33;50.57;;;30.80;;
15327;SDS011;7764;51.430;6.840;2022-09-12T01:03:03;47.10;;;30.77;;
15327;SDS011;7764;51.430;6.840;2022-09-12T01:05:32;49.57;;;30.47;;
15327;SDS011;7764;51.430;6.840;2022-09-12T01:08:02;46.00;;;30.23;;
15327;SDS011;7764;51.430;6.840;2022-09-12T01:10:30;48.40;;;30.50;;
15327;SDS011;7764;51.430;6.840;2022-09-12T01:12:59;47.27;;;31.03;;
15327;SDS011;7764;51.430;6.840;2022-09-12T01:15:26;46.10;;;29.83;;
15327;SDS011;7764;51.430;6.840;2022-09-12T01:17:57;47.07;;;30.60;;
15327;SDS011;7764;51.430;6.840;2022-09-12T01:20:52;46.73;;;29.73;;
15327;SDS011;7764;51.430;6.840;2022-09-12T01:32:44;44.47;;;28.70;;
15327;SDS011;7764;51.430;6.840;2022-09-12T01:35:22;46.20;;;29.43;;
15327;SDS011;7764;51.430;6.840;2022-09-12T01:37:55;45.83;;;29.00;;
15327;SDS011;7764;51.430;6.840;2022-09-12T01:40:33;46.63;;;28.90;;
15327;SDS011;7764;51.430;6.840;2022-09-12T01:43:09;44.20;;;28.97;;
15327;SDS011;7764;51.430;6.840;2022-09-12T01:45:47;45.13;;;28.60;;
15327;SDS011;7764;51.430;6.840;2022-09-12T01:48:21;42.80;;;28.43;;
15327;SDS011;7764;51.430;6.840;2022-09-12T01:50:54;46.47;;;28.43;;
15327;SDS011;7764;51.430;6.840;2022-09-12T01:53:27;43.33;;;27.30;;
15327;SDS011;7764;51.430;6.840;2022-09-12T01:55:59;40.40;;;27.27;;
15327;SDS011;7764;51.430;6.840;2022-09-12T01:58:32;42.23;;;27.57;;
15327;SDS011;7764;51.430;6.840;2022-09-12T02:01:05;44.73;;;28.80;;
15327;SDS011;7764;51.430;6.840;2022-09-12T02:03:38;44.03;;;27.87;;
15327;SDS011;7764;51.430;6.840;2022-09-12T02:06:11;42.33;;;26.90;;
15327;SDS011;7764;51.430;6.840;2022-09-12T02:08:44;44.37;;;27.60;;
15327;SDS011;7764;51.430;6.840;2022-09-12T02:11:14;45.13;;;27.77;;
15327;SDS011;7764;51.430;6.840;2022-09-12T02:13:41;45.20;;;29.13;;
15327;SDS011;7764;51.430;6.840;2022-09-12T02:16:14;47.07;;;28.63;;
15327;SDS011;7764;51.430;6.840;2022-09-12T02:18:44;46.80;;;28.03;;
15327;SDS011;7764;51.430;6.840;2022-09-12T02:21:15;41.87;;;26.97;;
15327;SDS011;7764;51.430;6.840;2022-09-12T02:23:45;45.63;;;28.17;;
15327;SDS011;7764;51.430;6.840;2022-09-12T02:26:17;45.67;;;28.60;;
15327;SDS011;7764;51.430;6.840;2022-09-12T02:28:46;44.83;;;28.53;;
15327;SDS011;7764;51.430;6.840;2022-09-12T02:31:16;45.80;;;27.80;;
15327;SDS011;7764;51.430;6.840;2022-09-12T02:33:48;45.77;;;27.93;;
15327;SDS011;7764;51.430;6.840;2022-09-12T02:36:26;43.23;;;27.47;;
15327;SDS011;7764;51.430;6.840;2022-09-12T02:38:59;44.43;;;27.43;;
15327;SDS011;7764;51.430;6.840;2022-09-12T02:41:26;42.53;;;27.63;;
15327;SDS011;7764;51.430;6.840;2022-09-12T02:43:53;42.10;;;27.17;;
15327;SDS011;7764;51.430;6.840;2022-09-12T02:46:23;40.53;;;27.77;;
15327;SDS011;7764;51.430;6.840;2022-09-12T02:48:54;43.93;;;26.90;;
15327;SDS011;7764;51.430;6.840;2022-09-12T02:51:22;42.57;;;25.83;;
15327;SDS011;7764;51.430;6.840;2022-09-12T02:53:49;38.40;;;25.93;;
15327;SDS011;7764;51.430;6.840;2022-09-12T02:56:17;40.67;;;25.83;;
15327;SDS011;7764;51.430;6.840;2022-09-12T02:58:47;42.27;;;26.30;;
15327;SDS011;7764;51.430;6.840;2022-09-12T03:01:18;41.33;;;26.50;;
15327;SDS011;7764;51.430;6.840;2022-09-12T03:03:58;38.40;;;24.83;;
15327;SDS011;7764;51.430;6.840;2022-09-12T03:06:54;38.47;;;25.10;;
15327;SDS011;7764;51.430;6.840;2022-09-12T03:09:29;40.97;;;25.33;;
15327;SDS011;7764;51.430;6.840;2022-09-12T03:12:07;66.37;;;49.73;;
15327;SDS011;7764;51.430;6.840;2022-09-12T03:14:57;41.23;;;25.90;;
15327;SDS011;7764;51.430;6.840;2022-09-12T03:17:40;64.17;;;42.83;;
15327;SDS011;7764;51.430;6.840;2022-09-12T03:20:16;46.33;;;28.43;;
15327;SDS011;7764;51.430;6.840;2022-09-12T03:22:55;38.47;;;25.33;;
15327;SDS011;7764;51.430;6.840;2022-09-12T03:25:26;38.43;;;24.83;;
15327;SDS011;7764;51.430;6.840;2022-09-12T03:27:57;41.57;;;25.37;;
15327;SDS011;7764;51.430;6.840;2022-09-12T03:30:30;41.60;;;27.20;;
15327;SDS011;7764;51.430;6.840;2022-09-12T03:33:03;42.40;;;27.37;;
15327;SDS011;7764;51.430;6.840;2022-09-12T03:35:30;37.73;;;25.23;;
15327;SDS011;7764;51.430;6.840;2022-09-12T03:37:57;40.37;;;25.93;;
15327;SDS011;7764;51.430;6.840;2022-09-12T03:40:24;37.13;;;23.90;;
15327;SDS011;7764;51.430;6.840;2022-09-12T03:42:50;40.17;;;23.97;;
15327;SDS011;7764;51.430;6.840;2022-09-12T03:45:17;36.00;;;23.93;;
15327;SDS011;7764;51.430;6.840;2022-09-12T03:47:44;44.07;;;28.53;;
15327;SDS011;7764;51.430;6.840;2022-09-12T03:50:12;37.10;;;23.80;;
15327;SDS011;7764;51.430;6.840;2022-09-12T03:52:39;35.23;;;23.17;;
15327;SDS011;7764;51.430;6.840;2022-09-12T03:55:07;38.50;;;24.63;;
15327;SDS011;7764;51.430;6.840;2022-09-12T03:57:34;34.93;;;23.97;;
15327;SDS011;7764;51.430;6.840;2022-09-12T04:00:02;36.10;;;23.53;;
15327;SDS011;7764;51.430;6.840;2022-09-12T04:02:30;41.87;;;29.40;;
15327;SDS011;7764;51.430;6.840;2022-09-12T04:04:56;38.60;;;24.23;;
15327;SDS011;7764;51.430;6.840;2022-09-12T04:07:25;41.00;;;27.20;;
15327;SDS011;7764;51.430;6.840;2022-09-12T04:09:52;38.00;;;23.30;;
15327;SDS011;7764;51.430;6.840;2022-09-12T04:12:19;36.33;;;22.87;;
15327;SDS011;7764;51.430;6.840;2022-09-12T04:14:46;33.80;;;22.37;;
15327;SDS011;7764;51.430;6.840;2022-09-12T04:17:13;54.67;;;41.70;;
15327;SDS011;7764;51.430;6.840;2022-09-12T04:19:41;45.63;;;29.63;;
15327;SDS011;7764;51.430;6.840;2022-09-12T04:22:08;35.63;;;23.17;;
15327;SDS011;7764;51.430;6.840;2022-09-12T04:24:36;35.47;;;23.07;;
15327;SDS011;7764;51.430;6.840;2022-09-12T04:27:03;39.47;;;23.87;;
15327;SDS011;7764;51.430;6.840;2022-09-12T04:29:29;37.93;;;22.53;;
15327;SDS011;7764;51.430;6.840;2022-09-12T04:31:56;32.87;;;22.27;;
15327;SDS011;7764;51.430;6.840;2022-09-12T04:34:23;33.00;;;21.60;;
15327;SDS011;7764;51.430;6.840;2022-09-12T04:36:50;37.67;;;23.77;;
15327;SDS011;7764;51.430;6.840;2022-09-12T04:39:17;32.80;;;22.43;;
15327;SDS011;7764;51.430;6.840;2022-09-12T04:41:45;37.03;;;23.30;;
15327;SDS011;7764;51.430;6.840;2022-09-12T04:44:12;36.07;;;22.63;;
15327;SDS011;7764;51.430;6.840;2022-09-12T04:46:40;112.57;;;90.23;;
15327;SDS011;7764;51.430;6.840;2022-09-12T04:49:09;53.30;;;36.37;;
15327;SDS011;7764;51.430;6.840;2022-09-12T04:51:37;36.93;;;25.70;;
15327;SDS011;7764;51.430;6.840;2022-09-12T04:54:06;32.97;;;22.10;;
15327;SDS011;7764;51.430;6.840;2022-09-12T04:56:36;33.60;;;20.97;;
15327;SDS011;7764;51.430;6.840;2022-09-12T04:59:05;34.87;;;21.70;;
15327;SDS011;7764;51.430;6.840;2022-09-12T05:01:33;30.83;;;21.27;;
15327;SDS011;7764;51.430;6.840;2022-09-12T05:04:00;31.80;;;21.83;;
15327;SDS011;7764;51.430;6.840;2022-09-12T05:06:29;36.70;;;21.47;;
15327;SDS011;7764;51.430;6.840;2022-09-12T05:08:57;35.87;;;22.60;;
15327;SDS011;7764;51.430;6.840;2022-09-12T05:11:26;51.43;;;35.63;;
15327;SDS011;7764;51.430;6.840;2022-09-12T05:13:54;33.07;;;20.63;;
15327;SDS011;7764;51.430;6.840;2022-09-12T05:16:23;31.23;;;20.33;;
15327;SDS011;7764;51.430;6.840;2022-09-12T05:18:51;31.60;;;20.07;;
15327;SDS011;7764;51.430;6.840;2022-09-12T05:21:19;31.03;;;21.30;;
15327;SDS011;7764;51.430;6.840;2022-09-12T05:23:49;29.43;;;20.17;;
15327;SDS011;7764;51.430;6.840;2022-09-12T05:26:17;32.30;;;21.20;;
15327;SDS011;7764;51.430;6.840;2022-09-12T05:28:45;33.67;;;20.37;;
15327;SDS011;7764;51.430;6.840;2022-09-12T05:31:14;32.70;;;21.43;;
15327;SDS011;7764;51.430;6.840;2022-09-12T05:33:44;31.00;;;20.80;;
15327;SDS011;7764;51.430;6.840;2022-09-12T05:36:13;30.57;;;19.83;;
15327;SDS011;7764;51.430;6.840;2022-09-12T05:38:42;31.67;;;20.93;;
15327;SDS011;7764;51.430;6.840;2022-09-12T05:41:10;32.33;;;20.17;;
15327;SDS011;7764;51.430;6.840;2022-09-12T05:43:38;32.93;;;21.97;;
15327;SDS011;7764;51.430;6.840;2022-09-12T05:46:07;30.40;;;20.33;;
15327;SDS011;7764;51.430;6.840;2022-09-12T05:48:35;51.20;;;38.33;;
15327;SDS011;7764;51.430;6.840;2022-09-12T05:51:04;29.70;;;18.83;;
15327;SDS011;7764;51.430;6.840;2022-09-12T05:53:33;28.97;;;19.27;;
15327;SDS011;7764;51.430;6.840;2022-09-12T05:56:01;29.57;;;19.77;;
15327;SDS011;7764;51.430;6.840;2022-09-12T05:58:29;33.87;;;22.40;;
15327;SDS011;7764;51.430;6.840;2022-09-12T06:01:00;28.20;;;18.97;;
15327;SDS011;7764;51.430;6.840;2022-09-12T06:03:27;34.07;;;20.87;;
15327;SDS011;7764;51.430;6.840;2022-09-12T06:05:55;31.00;;;18.20;;
15327;SDS011;7764;51.430;6.840;2022-09-12T06:08:23;29.93;;;18.50;;
15327;SDS011;7764;51.430;6.840;2022-09-12T06:10:50;24.37;;;17.60;;
15327;SDS011;7764;51.430;6.840;2022-09-12T06:13:23;27.33;;;18.70;;
15327;SDS011;7764;51.430;6.840;2022-09-12T06:15:50;31.33;;;21.13;;
15327;SDS011;7764;51.430;6.840;2022-09-12T06:18:18;22.03;;;15.80;;
15327;SDS011;7764;51.430;6.840;2022-09-12T06:20:45;25.67;;;17.50;;
15327;SDS011;7764;51.430;6.840;2022-09-12T06:23:12;24.37;;;18.07;;
15327;SDS011;7764;51.430;6.840;2022-09-12T06:25:46;22.38;;;17.10;;
15327;SDS011;7764;51.430;6.840;2022-09-12T06:28:14;23.17;;;16.30;;
15327;SDS011;7764;51.430;6.840;2022-09-12T06:30:41;24.85;;;15.95;;
15327;SDS011;7764;51.430;6.840;2022-09-12T06:33:08;23.83;;;16.45;;
15327;SDS011;7764;51.430;6.840;2022-09-12T06:35:35;26.67;;;15.32;;
15327;SDS011;7764;51.430;6.840;2022-09-12T06:38:02;19.13;;;14.80;;
15327;SDS011;7764;51.430;6.840;2022-09-12T06:40:30;21.77;;;14.70;;
15327;SDS011;7764;51.430;6.840;2022-09-12T06:42:58;17.20;;;12.48;;
15327;SDS011;7764;51.430;6.840;2022-09-12T06:45:25;18.10;;;13.13;;
15327;SDS011;7764;51.430;6.840;2022-09-12T06:47:53;17.95;;;12.07;;
15327;SDS011;7764;51.430;6.840;2022-09-12T06:50:21;13.48;;;11.18;;
15327;SDS011;7764;51.430;6.840;2022-09-12T06:52:48;16.70;;;10.95;;
15327;SDS011;7764;51.430;6.840;2022-09-12T06:55:15;13.30;;;10.90;;
15327;SDS011;7764;51.430;6.840;2022-09-12T06:57:42;15.25;;;11.15;;
15327;SDS011;7764;51.430;6.840;2022-09-12T07:00:11;16.50;;;12.15;;
15327;SDS011;7764;51.430;6.840;2022-09-12T07:02:38;17.05;;;11.40;;
15327;SDS011;7764;51.430;6.840;2022-09-12T07:05:06;15.13;;;11.27;;
15327;SDS011;7764;51.430;6.840;2022-09-12T07:07:34;14.80;;;10.88;;
15327;SDS011;7764;51.430;6.840;2022-09-12T07:10:01;51.13;;;45.40;;
15327;SDS011;7764;51.430;6.840;2022-09-12T07:12:28;18.55;;;11.40;;
15327;SDS011;7764;51.430;6.840;2022-09-12T07:14:55;16.30;;;10.07;;
15327;SDS011;7764;51.430;6.840;2022-09-12T07:17:23;14.07;;;10.38;;
15327;SDS011;7764;51.430;6.840;2022-09-12T07:19:50;16.10;;;11.10;;
15327;SDS011;7764;51.430;6.840;2022-09-12T07:22:17;18.58;;;11.57;;
15327;SDS011;7764;51.430;6.840;2022-09-12T07:24:44;16.10;;;11.38;;
15327;SDS011;7764;51.430;6.840;2022-09-12T07:27:13;14.50;;;11.40;;
15327;SDS011;7764;51.430;6.840;2022-09-12T07:29:39;15.80;;;10.70;;
15327;SDS011;7764;51.430;6.840;2022-09-12T07:32:08;14.40;;;10.30;;
15327;SDS011;7764;51.430;6.840;2022-09-12T07:34:37;16.10;;;10.18;;
15327;SDS011;7764;51.430;6.840;2022-09-12T07:37:04;19.85;;;11.40;;
15327;SDS011;7764;51.430;6.840;2022-09-12T07:39:31;15.38;;;11.00;;
15327;SDS011;7764;51.430;6.840;2022-09-12T07:41:58;15.65;;;10.45;;
15327;SDS011;7764;51.430;6.840;2022-09-12T07:44:25;17.92;;;12.82;;
15327;SDS011;7764;51.430;6.840;2022-09-12T07:46:52;15.55;;;10.75;;
15327;SDS011;7764;51.430;6.840;2022-09-12T07:49:19;13.10;;;10.70;;
15327;SDS011;7764;51.430;6.840;2022-09-12T07:51:47;16.33;;;10.43;;
15327;SDS011;7764;51.430;6.840;2022-09-12T07:54:14;13.88;;;10.50;;
15327;SDS011;7764;51.430;6.840;2022-09-12T07:56:41;13.93;;;10.18;;
15327;SDS011;7764;51.430;6.840;2022-09-12T07:59:09;13.88;;;9.77;;
15327;SDS011;7764;51.430;6.840;2022-09-12T08:01:36;21.25;;;10.93;;
15327;SDS011;7764;51.430;6.840;2022-09-12T08:04:03;16.20;;;10.40;;
15327;SDS011;7764;51.430;6.840;2022-09-12T08:06:32;14.38;;;11.07;;
15327;SDS011;7764;51.430;6.840;2022-09-12T08:09:01;14.90;;;10.85;;
15327;SDS011;7764;51.430;6.840;2022-09-12T08:11:28;32.78;;;26.15;;
15327;SDS011;7764;51.430;6.840;2022-09-12T08:13:56;16.08;;;10.82;;
15327;SDS011;7764;51.430;6.840;2022-09-12T08:16:24;15.60;;;11.77;;
15327;SDS011;7764;51.430;6.840;2022-09-12T08:18:54;14.68;;;10.48;;
15327;SDS011;7764;51.430;6.840;2022-09-12T08:21:21;15.80;;;11.05;;
15327;SDS011;7764;51.430;6.840;2022-09-12T08:23:50;15.95;;;10.75;;
15327;SDS011;7764;51.430;6.840;2022-09-12T08:26:20;19.48;;;11.40;;
15327;SDS011;7764;51.430;6.840;2022-09-12T08:28:48;17.08;;;10.38;;
15327;SDS011;7764;51.430;6.840;2022-09-12T08:31:15;14.20;;;9.75;;
15327;SDS011;7764;51.430;6.840;2022-09-12T08:33:44;15.20;;;10.27;;
15327;SDS011;7764;51.430;6.840;2022-09-12T08:36:11;15.48;;;12.65;;
15327;SDS011;7764;51.430;6.840;2022-09-12T08:38:40;17.90;;;10.88;;
15327;SDS011;7764;51.430;6.840;2022-09-12T08:41:10;13.20;;;10.02;;
15327;SDS011;7764;51.430;6.840;2022-09-12T08:43:52;13.77;;;10.38;;
15327;SDS011;7764;51.430;6.840;2022-09-12T08:46:37;12.80;;;10.25;;
15327;SDS011;7764;51.430;6.840;2022-09-12T08:49:12;14.43;;;10.02;;
15327;SDS011;7764;51.430;6.840;2022-09-12T08:51:51;14.57;;;10.55;;
15327;SDS011;7764;51.430;6.840;2022-09-12T08:54:20;16.75;;;9.93;;
15327;SDS011;7764;51.430;6.840;2022-09-12T08:56:50;13.18;;;9.90;;
15327;SDS011;7764;51.430;6.840;2022-09-12T08:59:24;14.48;;;9.50;;
15327;SDS011;7764;51.430;6.840;2022-09-12T09:01:51;25.35;;;22.27;;
15327;SDS011;7764;51.430;6.840;2022-09-12T09:07:27;12.98;;;10.13;;
15327;SDS011;7764;51.430;6.840;2022-09-12T09:10:07;15.05;;;10.68;;
15327;SDS011;7764;51.430;6.840;2022-09-12T09:12:45;12.18;;;9.20;;
15327;SDS011;7764;51.430;6.840;2022-09-12T09:15:35;19.08;;;10.32;;
15327;SDS011;7764;51.430;6.840;2022-09-12T09:18:11;11.35;;;9.23;;
15327;SDS011;7764;51.430;6.840;2022-09-12T09:20:44;13.10;;;8.45;;
15327;SDS011;7764;51.430;6.840;2022-09-12T09:23:15;11.60;;;9.00;;
15327;SDS011;7764;51.430;6.840;2022-09-12T09:25:49;11.93;;;8.63;;
15327;SDS011;7764;51.430;6.840;2022-09-12T09:28:24;9.50;;;7.68;;
15327;SDS011;7764;51.430;6.840;2022-09-12T09:30:58;11.30;;;7.60;;
15327;SDS011;7764;51.430;6.840;2022-09-12T09:33:26;13.35;;;7.40;;
15327;SDS011;7764;51.430;6.840;2022-09-12T09:35:59;17.77;;;8.18;;
15327;SDS011;7764;51.430;6.840;2022-09-12T09:38:38;10.52;;;7.50;;
15327;SDS011;7764;51.430;6.840;2022-09-12T09:41:17;9.85;;;6.95;;
15327;SDS011;7764;51.430;6.840;2022-09-12T09:43:58;10.02;;;7.50;;
15327;SDS011;7764;51.430;6.840;2022-09-12T09:46:28;9.70;;;6.95;;
15327;SDS011;7764;51.430;6.840;2022-09-12T09:48:55;14.63;;;7.63;;
15327;SDS011;7764;51.430;6.840;2022-09-12T09:51:28;10.73;;;6.80;;
15327;SDS011;7764;51.430;6.840;2022-09-12T09:54:00;10.23;;;6.63;;
15327;SDS011;7764;51.430;6.840;2022-09-12T09:56:34;7.57;;;6.00;;
15327;SDS011;7764;51.430;6.840;2022-09-12T09:59:08;10.48;;;6.53;;
15327;SDS011;7764;51.430;6.840;2022-09-12T10:01:39;11.50;;;6.30;;
15327;SDS011;7764;51.430;6.840;2022-09-12T10:04:15;9.50;;;6.13;;
15327;SDS011;7764;51.430;6.840;2022-09-12T10:06:45;9.27;;;6.10;;
15327;SDS011;7764;51.430;6.840;2022-09-12T10:09:19;11.45;;;6.20;;
15327;SDS011;7764;51.430;6.840;2022-09-12T10:11:49;8.30;;;5.78;;
15327;SDS011;7764;51.430;6.840;2022-09-12T10:14:27;7.15;;;5.40;;
15327;SDS011;7764;51.430;6.840;2022-09-12T10:17:01;8.02;;;5.10;;
15327;SDS011;7764;51.430;6.840;2022-09-12T10:19:46;7.68;;;5.80;;
15327;SDS011;7764;51.430;6.840;2022-09-12T10:22:15;8.70;;;5.70;;
15327;SDS011;7764;51.430;6.840;2022-09-12T10:24:45;10.35;;;5.40;;
15327;SDS011;7764;51.430;6.840;2022-09-12T10:27:15;8.77;;;5.63;;
15327;SDS011;7764;51.430;6.840;2022-09-12T10:29:45;7.35;;;5.15;;
15327;SDS011;7764;51.430;6.840;2022-09-12T10:32:21;7.00;;;5.15;;
15327;SDS011;7764;51.430;6.840;2022-09-12T10:34:54;6.85;;;5.10;;
15327;SDS011;7764;51.430;6.840;2022-09-12T10:37:25;6.45;;;4.47;;
15327;SDS011;7764;51.430;6.840;2022-09-12T10:39:56;7.10;;;4.85;;
15327;SDS011;7764;51.430;6.840;2022-09-12T10:45:20;5.78;;;4.45;;
15327;SDS011;7764;51.430;6.840;2022-09-12T10:47:52;5.90;;;4.57;;
15327;SDS011;7764;51.430;6.840;2022-09-12T10:50:21;6.15;;;4.43;;
15327;SDS011;7764;51.430;6.840;2022-09-12T10:52:50;5.80;;;4.47;;
15327;SDS011;7764;51.430;6.840;2022-09-12T10:55:17;7.22;;;5.25;;
15327;SDS011;7764;51.430;6.840;2022-09-12T10:57:56;7.55;;;4.57;;
15327;SDS011;7764;51.430;6.840;2022-09-12T11:00:31;7.65;;;5.45;;
15327;SDS011;7764;51.430;6.840;2022-09-12T11:03:08;6.40;;;4.90;;
15327;SDS011;7764;51.430;6.840;2022-09-12T11:05:48;5.65;;;4.40;;
15327;SDS011;7764;51.430;6.840;2022-09-12T11:08:28;6.45;;;4.45;;
15327;SDS011;7764;51.430;6.840;2022-09-12T11:11:11;7.32;;;4.95;;
15327;SDS011;7764;51.430;6.840;2022-09-12T11:13:56;7.30;;;4.82;;
15327;SDS011;7764;51.430;6.840;2022-09-12T11:16:34;6.45;;;4.82;;
15327;SDS011;7764;51.430;6.840;2022-09-12T11:19:11;6.93;;;4.80;;
15327;SDS011;7764;51.430;6.840;2022-09-12T11:21:51;5.15;;;4.10;;
15327;SDS011;7764;51.430;6.840;2022-09-12T11:24:35;5.65;;;4.35;;
15327;SDS011;7764;51.430;6.840;2022-09-12T11:27:19;6.40;;;4.20;;
15327;SDS011;7764;51.430;6.840;2022-09-12T11:29:56;5.45;;;4.07;;
15327;SDS011;7764;51.430;6.840;2022-09-12T11:35:31;6.65;;;4.68;;
15327;SDS011;7764;51.430;6.840;2022-09-12T11:38:10;5.43;;;3.70;;
15327;SDS011;7764;51.430;6.840;2022-09-12T11:40:44;5.32;;;3.78;;
15327;SDS011;7764;51.430;6.840;2022-09-12T11:43:21;5.70;;;4.38;;
15327;SDS011;7764;51.430;6.840;2022-09-12T11:45:54;7.35;;;4.53;;
15327;SDS011;7764;51.430;6.840;2022-09-12T11:48:29;4.93;;;3.70;;
15327;SDS011;7764;51.430;6.840;2022-09-12T11:51:05;7.75;;;3.83;;
15327;SDS011;7764;51.430;6.840;2022-09-12T11:53:43;5.30;;;4.07;;
15327;SDS011;7764;51.430;6.840;2022-09-12T11:56:23;7.43;;;4.97;;
15327;SDS011;7764;51.430;6.840;2022-09-12T11:58:52;6.22;;;4.38;;
15327;SDS011;7764;51.430;6.840;2022-09-12T12:01:25;5.40;;;3.35;;
15327;SDS011;7764;51.430;6.840;2022-09-12T12:03:55;8.38;;;4.05;;
15327;SDS011;7764;51.430;6.840;2022-09-12T12:06:25;4.97;;;3.70;;
15327;SDS011;7764;51.430;6.840;2022-09-12T12:08:57;6.68;;;4.13;;
15327;SDS011;7764;51.430;6.840;2022-09-12T12:11:26;4.43;;;3.58;;
15327;SDS011;7764;51.430;6.840;2022-09-12T12:13:59;5.32;;;3.40;;
15327;SDS011;7764;51.430;6.840;2022-09-12T12:16:29;7.35;;;3.63;;
15327;SDS011;7764;51.430;6.840;2022-09-12T12:18:59;7.40;;;5.18;;
15327;SDS011;7764;51.430;6.840;2022-09-12T12:21:36;6.25;;;3.80;;
15327;SDS011;7764;51.430;6.840;2022-09-12T12:24:12;7.32;;;4.40;;
15327;SDS011;7764;51.430;6.840;2022-09-12T12:26:43;5.45;;;3.35;;
15327;SDS011;7764;51.430;6.840;2022-09-12T12:29:37;5.43;;;3.60;;
15327;SDS011;7764;51.430;6.840;2022-09-12T12:32:18;3.80;;;3.22;;
15327;SDS011;7764;51.430;6.840;2022-09-12T12:34:46;4.63;;;3.40;;
15327;SDS011;7764;51.430;6.840;2022-09-12T12:40:22;6.82;;;3.53;;
15327;SDS011;7764;51.430;6.840;2022-09-12T12:43:00;5.43;;;3.80;;
15327;SDS011;7764;51.430;6.840;2022-09-12T12:48:43;4.32;;;3.13;;
15327;SDS011;7764;51.430;6.840;2022-09-12T12:51:34;6.03;;;3.42;;
15327;SDS011;7764;51.430;6.840;2022-09-12T12:54:27;4.07;;;3.15;;
15327;SDS011;7764;51.430;6.840;2022-09-12T12:57:16;6.28;;;3.58;;
15327;SDS011;7764;51.430;6.840;2022-09-12T12:59:51;7.82;;;4.55;;
15327;SDS011;7764;51.430;6.840;2022-09-12T13:02:25;7.68;;;5.32;;
15327;SDS011;7764;51.430;6.840;2022-09-12T13:04:55;4.03;;;2.97;;
15327;SDS011;7764;51.430;6.840;2022-09-12T13:07:27;11.93;;;9.00;;
15327;SDS011;7764;51.430;6.840;2022-09-12T13:09:59;6.32;;;5.10;;
15327;SDS011;7764;51.430;6.840;2022-09-12T13:12:28;5.07;;;4.57;;
15327;SDS011;7764;51.430;6.840;2022-09-12T13:14:58;4.18;;;3.40;;
15327;SDS011;7764;51.430;6.840;2022-09-12T13:17:28;10.27;;;7.47;;
15327;SDS011;7764;51.430;6.840;2022-09-12T13:20:03;9.48;;;3.33;;
15327;SDS011;7764;51.430;6.840;2022-09-12T13:22:44;5.80;;;3.40;;
15327;SDS011;7764;51.430;6.840;2022-09-12T13:25:21;5.57;;;3.65;;
15327;SDS011;7764;51.430;6.840;2022-09-12T13:27:57;6.38;;;5.57;;
15327;SDS011;7764;51.430;6.840;2022-09-12T13:30:30;5.28;;;3.70;;
15327;SDS011;7764;51.430;6.840;2022-09-12T13:33:03;4.78;;;3.78;;
15327;SDS011;7764;51.430;6.840;2022-09-12T13:35:37;5.85;;;4.20;;
15327;SDS011;7764;51.430;6.840;2022-09-12T13:38:13;6.18;;;4.57;;
15327;SDS011;7764;51.430;6.840;2022-09-12T13:40:52;4.90;;;3.60;;
15327;SDS011;7764;51.430;6.840;2022-09-12T13:43:35;6.32;;;4.07;;
15327;SDS011;7764;51.430;6.840;2022-09-12T13:46:04;4.13;;;3.30;;
15327;SDS011;7764;51.430;6.840;2022-09-12T13:48:32;6.05;;;3.80;;
15327;SDS011;7764;51.430;6.840;2022-09-12T13:50:59;4.50;;;3.55;;
15327;SDS011;7764;51.430;6.840;2022-09-12T13:53:28;4.65;;;3.35;;
15327;SDS011;7764;51.430;6.840;2022-09-12T13:56:02;4.68;;;3.47;;
15327;SDS011;7764;51.430;6.840;2022-09-12T13:58:29;6.47;;;3.40;;
15327;SDS011;7764;51.430;6.840;2022-09-12T14:01:01;6.10;;;3.80;;
15327;SDS011;7764;51.430;6.840;2022-09-12T14:03:32;4.68;;;3.42;;
15327;SDS011;7764;51.430;6.840;2022-09-12T14:06:21;4.32;;;3.10;;
15327;SDS011;7764;51.430;6.840;2022-09-12T14:08:50;6.25;;;3.38;;
15327;SDS011;7764;51.430;6.840;2022-09-12T14:11:22;7.05;;;3.53;;
15327;SDS011;7764;51.430;6.840;2022-09-12T14:13:50;5.03;;;3.45;;
15327;SDS011;7764;51.430;6.840;2022-09-12T14:16:18;4.60;;;3.33;;
15327;SDS011;7764;51.430;6.840;2022-09-12T14:18:47;4.50;;;3.33;;
15327;SDS011;7764;51.430;6.840;2022-09-12T14:21:19;5.00;;;3.53;;
15327;SDS011;7764;51.430;6.840;2022-09-12T14:23:59;6.38;;;3.80;;
15327;SDS011;7764;51.430;6.840;2022-09-12T14:26:30;4.45;;;3.50;;
15327;SDS011;7764;51.430;6.840;2022-09-12T14:29:00;5.25;;;3.35;;
15327;SDS011;7764;51.430;6.840;2022-09-12T14:31:30;7.43;;;3.50;;
15327;SDS011;7764;51.430;6.840;2022-09-12T14:34:07;12.57;;;6.60;;
15327;SDS011;7764;51.430;6.840;2022-09-12T14:36:38;5.85;;;4.10;;
15327;SDS011;7764;51.430;6.840;2022-09-12T14:39:14;4.25;;;3.60;;
15327;SDS011;7764;51.430;6.840;2022-09-12T14:41:46;4.82;;;3.85;;
15327;SDS011;7764;51.430;6.840;2022-09-12T14:44:14;5.25;;;3.70;;
15327;SDS011;7764;51.430;6.840;2022-09-12T14:46:44;5.35;;;3.60;;
15327;SDS011;7764;51.430;6.840;2022-09-12T14:49:14;5.53;;;3.50;;
15327;SDS011;7764;51.430;6.840;2022-09-12T14:51:46;4.75;;;3.65;;
15327;SDS011;7764;51.430;6.840;2022-09-12T14:54:35;7.75;;;3.58;;
15327;SDS011;7764;51.430;6.840;2022-09-12T14:57:14;6.05;;;3.85;;
15327;SDS011;7764;51.430;6.840;2022-09-12T15:00:03;6.40;;;4.20;;
15327;SDS011;7764;51.430;6.840;2022-09-12T15:02:46;13.77;;;10.52;;
15327;SDS011;7764;51.430;6.840;2022-09-12T15:05:15;6.13;;;4.03;;
15327;SDS011;7764;51.430;6.840;2022-09-12T15:07:44;4.28;;;3.22;;
15327;SDS011;7764;51.430;6.840;2022-09-12T15:10:18;6.03;;;3.80;;
15327;SDS011;7764;51.430;6.840;2022-09-12T15:12:57;5.85;;;3.70;;
15327;SDS011;7764;51.430;6.840;2022-09-12T15:15:36;6.47;;;4.70;;
15327;SDS011;7764;51.430;6.840;2022-09-12T15:18:04;8.07;;;6.57;;
15327;SDS011;7764;51.430;6.840;2022-09-12T15:20:32;4.68;;;3.83;;
15327;SDS011;7764;51.430;6.840;2022-09-12T15:22:59;5.32;;;3.95;;
15327;SDS011;7764;51.430;6.840;2022-09-12T15:25:26;5.28;;;3.78;;
15327;SDS011;7764;51.430;6.840;2022-09-12T15:27:54;6.50;;;3.60;;
15327;SDS011;7764;51.430;6.840;2022-09-12T15:30:21;6.20;;;3.60;;
15327;SDS011;7764;51.430;6.840;2022-09-12T15:32:48;4.22;;;3.10;;
15327;SDS011;7764;51.430;6.840;2022-09-12T15:35:15;7.38;;;3.88;;